sensor_id;sensor_type;location;lat;lon;timestamp;temperature;humidity
27164;DHT22;14685;50.618;7.024;2022-08-04T00:00:06;27.00;90.80
27164;DHT22;14685;50.618;7.024;2022-08-04T00:05:05;27.00;91.00
27164;DHT22;14685;50.618;7.024;2022-08-04T00:07:41;26.90;91.10
27164;DHT22;14685;50.618;7.024;2022-08-04T00:10:12;26.90;91.00
27164;DHT22;14685;50.618;7.024;2022-08-04T00:12:50;26.80;91.00
27164;DHT22;14685;50.618;7.024;2022-08-04T00:15:17;26.80;91.00
27164;DHT22;14685;50.618;7.024;2022-08-04T00:17:52;26.80;91.00
27164;DHT22;14685;50.618;7.024;2022-08-04T00:20:20;26.80;91.00
27164;DHT22;14685;50.618;7.024;2022-08-04T00:22:51;26.80;91.00
27164;DHT22;14685;50.618;7.024;2022-08-04T00:25:18;26.70;91.00
27164;DHT22;14685;50.618;7.024;2022-08-04T00:27:45;26.70;91.20
27164;DHT22;14685;50.618;7.024;2022-08-04T00:30:12;26.70;91.30
27164;DHT22;14685;50.618;7.024;2022-08-04T00:32:40;26.60;91.30
27164;DHT22;14685;50.618;7.024;2022-08-04T00:35:08;26.60;91.30
27164;DHT22;14685;50.618;7.024;2022-08-04T00:37:39;26.60;91.10
27164;DHT22;14685;50.618;7.024;2022-08-04T00:57:02;26.40;91.60
27164;DHT22;14685;50.618;7.024;2022-08-04T01:02:36;26.40;91.70
27164;DHT22;14685;50.618;7.024;2022-08-04T01:08:48;26.30;91.80
27164;DHT22;14685;50.618;7.024;2022-08-04T01:16:48;26.20;92.00
27164;DHT22;14685;50.618;7.024;2022-08-04T01:19:44;26.10;92.00
27164;DHT22;14685;50.618;7.024;2022-08-04T01:30:07;26.00;92.10
27164;DHT22;14685;50.618;7.024;2022-08-04T01:32:42;26.00;92.20
27164;DHT22;14685;50.618;7.024;2022-08-04T01:36:09;25.90;92.20
27164;DHT22;14685;50.618;7.024;2022-08-04T01:40:56;25.90;92.40
27164;DHT22;14685;50.618;7.024;2022-08-04T01:43:23;25.80;92.40
27164;DHT22;14685;50.618;7.024;2022-08-04T01:45:58;25.80;92.40
27164;DHT22;14685;50.618;7.024;2022-08-04T01:48:26;25.80;92.60
27164;DHT22;14685;50.618;7.024;2022-08-04T01:50:57;25.80;92.60
27164;DHT22;14685;50.618;7.024;2022-08-04T01:53:33;25.80;92.70
27164;DHT22;14685;50.618;7.024;2022-08-04T01:56:02;25.70;92.70
27164;DHT22;14685;50.618;7.024;2022-08-04T01:58:31;25.70;92.70
27164;DHT22;14685;50.618;7.024;2022-08-04T02:03:36;25.60;92.70
27164;DHT22;14685;50.618;7.024;2022-08-04T02:06:46;25.60;92.90
27164;DHT22;14685;50.618;7.024;2022-08-04T02:09:22;25.60;93.00
27164;DHT22;14685;50.618;7.024;2022-08-04T02:12:04;25.60;93.20
27164;DHT22;14685;50.618;7.024;2022-08-04T02:14:55;25.50;93.00
27164;DHT22;14685;50.618;7.024;2022-08-04T02:17:28;25.50;93.10
27164;DHT22;14685;50.618;7.024;2022-08-04T02:20:09;25.50;93.00
27164;DHT22;14685;50.618;7.024;2022-08-04T02:22:52;25.50;93.10
27164;DHT22;14685;50.618;7.024;2022-08-04T02:25:26;25.40;93.10
27164;DHT22;14685;50.618;7.024;2022-08-04T02:30:57;25.40;93.40
27164;DHT22;14685;50.618;7.024;2022-08-04T02:33:41;25.30;93.40
27164;DHT22;14685;50.618;7.024;2022-08-04T02:36:13;25.30;93.30
27164;DHT22;14685;50.618;7.024;2022-08-04T02:38:55;25.30;93.60
27164;DHT22;14685;50.618;7.024;2022-08-04T02:41:24;25.30;93.40
27164;DHT22;14685;50.618;7.024;2022-08-04T02:43:55;25.30;93.50
27164;DHT22;14685;50.618;7.024;2022-08-04T02:46:23;25.20;93.40
27164;DHT22;14685;50.618;7.024;2022-08-04T02:48:51;25.20;93.50
27164;DHT22;14685;50.618;7.024;2022-08-04T02:51:26;25.20;93.60
27164;DHT22;14685;50.618;7.024;2022-08-04T02:53:55;25.20;93.70
27164;DHT22;14685;50.618;7.024;2022-08-04T02:56:23;25.20;93.70
27164;DHT22;14685;50.618;7.024;2022-08-04T02:58:57;25.20;93.80
27164;DHT22;14685;50.618;7.024;2022-08-04T03:01:24;25.20;93.80
27164;DHT22;14685;50.618;7.024;2022-08-04T03:19:17;25.00;93.90
27164;DHT22;14685;50.618;7.024;2022-08-04T03:30:13;24.90;94.10
27164;DHT22;14685;50.618;7.024;2022-08-04T03:40:55;24.80;94.40
27164;DHT22;14685;50.618;7.024;2022-08-04T03:43:46;24.70;94.30
27164;DHT22;14685;50.618;7.024;2022-08-04T04:01:04;24.60;94.80
27164;DHT22;14685;50.618;7.024;2022-08-04T04:04:02;24.60;94.90
27164;DHT22;14685;50.618;7.024;2022-08-04T04:15:23;24.50;95.10
27164;DHT22;14685;50.618;7.024;2022-08-04T04:24:00;24.50;95.20
27164;DHT22;14685;50.618;7.024;2022-08-04T04:32:23;24.30;95.40
27164;DHT22;14685;50.618;7.024;2022-08-04T04:37:53;24.20;95.60
27164;DHT22;14685;50.618;7.024;2022-08-04T04:54:33;24.30;95.90
27164;DHT22;14685;50.618;7.024;2022-08-04T04:57:16;24.30;95.80
27164;DHT22;14685;50.618;7.024;2022-08-04T04:59:59;24.30;95.80
27164;DHT22;14685;50.618;7.024;2022-08-04T05:08:42;24.40;95.80
27164;DHT22;14685;50.618;7.024;2022-08-04T05:14:26;24.40;95.90
27164;DHT22;14685;50.618;7.024;2022-08-04T05:17:20;24.50;95.80
27164;DHT22;14685;50.618;7.024;2022-08-04T05:20:13;24.60;95.70
27164;DHT22;14685;50.618;7.024;2022-08-04T05:22:58;24.70;95.70
27164;DHT22;14685;50.618;7.024;2022-08-04T05:26:00;24.70;95.50
27164;DHT22;14685;50.618;7.024;2022-08-04T05:31:03;24.90;95.50
27164;DHT22;14685;50.618;7.024;2022-08-04T05:33:38;24.90;95.30
27164;DHT22;14685;50.618;7.024;2022-08-04T05:36:12;24.90;95.20
27164;DHT22;14685;50.618;7.024;2022-08-04T05:38:53;25.00;95.30
27164;DHT22;14685;50.618;7.024;2022-08-04T05:41:21;25.00;95.30
27164;DHT22;14685;50.618;7.024;2022-08-04T05:43:57;25.10;95.20
27164;DHT22;14685;50.618;7.024;2022-08-04T05:46:26;25.20;95.30
27164;DHT22;14685;50.618;7.024;2022-08-04T05:48:54;25.30;95.10
27164;DHT22;14685;50.618;7.024;2022-08-04T05:51:22;25.40;95.10
27164;DHT22;14685;50.618;7.024;2022-08-04T05:53:50;25.40;94.70
27164;DHT22;14685;50.618;7.024;2022-08-04T05:56:18;25.50;95.20
27164;DHT22;14685;50.618;7.024;2022-08-04T06:01:13;25.70;94.40
27164;DHT22;14685;50.618;7.024;2022-08-04T06:03:43;25.80;94.60
27164;DHT22;14685;50.618;7.024;2022-08-04T06:06:13;26.00;94.70
27164;DHT22;14685;50.618;7.024;2022-08-04T06:08:40;26.00;94.50
27164;DHT22;14685;50.618;7.024;2022-08-04T06:11:08;26.10;94.70
27164;DHT22;14685;50.618;7.024;2022-08-04T06:13:50;26.20;94.70
27164;DHT22;14685;50.618;7.024;2022-08-04T06:16:21;26.20;94.50
27164;DHT22;14685;50.618;7.024;2022-08-04T06:18:59;26.30;94.20
27164;DHT22;14685;50.618;7.024;2022-08-04T06:21:49;26.40;94.10
27164;DHT22;14685;50.618;7.024;2022-08-04T06:24:19;26.50;94.20
27164;DHT22;14685;50.618;7.024;2022-08-04T06:26:49;26.70;94.30
27164;DHT22;14685;50.618;7.024;2022-08-04T06:29:18;26.70;93.20
27164;DHT22;14685;50.618;7.024;2022-08-04T06:32:18;26.80;93.70
27164;DHT22;14685;50.618;7.024;2022-08-04T06:35:04;26.90;93.60
27164;DHT22;14685;50.618;7.024;2022-08-04T06:37:33;27.20;94.20
27164;DHT22;14685;50.618;7.024;2022-08-04T06:40:12;27.30;93.60
27164;DHT22;14685;50.618;7.024;2022-08-04T06:43:08;27.50;93.00
27164;DHT22;14685;50.618;7.024;2022-08-04T06:45:37;27.60;93.00
27164;DHT22;14685;50.618;7.024;2022-08-04T06:48:06;27.70;92.30
27164;DHT22;14685;50.618;7.024;2022-08-04T06:50:36;27.90;92.40
27164;DHT22;14685;50.618;7.024;2022-08-04T06:53:25;27.90;92.50
27164;DHT22;14685;50.618;7.024;2022-08-04T06:55:53;28.10;92.20
27164;DHT22;14685;50.618;7.024;2022-08-04T06:58:21;28.20;91.60
27164;DHT22;14685;50.618;7.024;2022-08-04T07:00:49;28.30;91.30
27164;DHT22;14685;50.618;7.024;2022-08-04T07:03:18;28.40;91.20
27164;DHT22;14685;50.618;7.024;2022-08-04T07:05:49;28.50;91.80
27164;DHT22;14685;50.618;7.024;2022-08-04T07:08:17;28.60;91.60
27164;DHT22;14685;50.618;7.024;2022-08-04T07:10:44;28.70;91.20
27164;DHT22;14685;50.618;7.024;2022-08-04T07:13:12;28.80;91.70
27164;DHT22;14685;50.618;7.024;2022-08-04T07:15:44;28.90;91.80
27164;DHT22;14685;50.618;7.024;2022-08-04T07:18:11;29.00;91.50
27164;DHT22;14685;50.618;7.024;2022-08-04T07:20:42;29.20;91.00
27164;DHT22;14685;50.618;7.024;2022-08-04T07:23:10;29.30;90.70
27164;DHT22;14685;50.618;7.024;2022-08-04T07:25:39;29.40;90.70
27164;DHT22;14685;50.618;7.024;2022-08-04T07:28:29;29.40;90.40
27164;DHT22;14685;50.618;7.024;2022-08-04T07:30:56;29.50;90.80
27164;DHT22;14685;50.618;7.024;2022-08-04T07:33:24;29.60;90.50
27164;DHT22;14685;50.618;7.024;2022-08-04T07:35:53;29.70;90.50
27164;DHT22;14685;50.618;7.024;2022-08-04T07:38:40;29.90;90.50
27164;DHT22;14685;50.618;7.024;2022-08-04T07:41:20;30.00;90.10
27164;DHT22;14685;50.618;7.024;2022-08-04T07:44:04;30.20;90.00
27164;DHT22;14685;50.618;7.024;2022-08-04T07:46:31;30.30;88.10
27164;DHT22;14685;50.618;7.024;2022-08-04T07:48:59;30.50;88.90
27164;DHT22;14685;50.618;7.024;2022-08-04T07:51:27;30.60;88.60
27164;DHT22;14685;50.618;7.024;2022-08-04T07:53:55;30.70;87.90
27164;DHT22;14685;50.618;7.024;2022-08-04T07:56:23;30.80;87.80
27164;DHT22;14685;50.618;7.024;2022-08-04T07:58:51;30.90;88.20
27164;DHT22;14685;50.618;7.024;2022-08-04T08:01:18;31.00;87.60
27164;DHT22;14685;50.618;7.024;2022-08-04T08:03:45;31.10;86.90
27164;DHT22;14685;50.618;7.024;2022-08-04T08:06:13;31.40;90.70
27164;DHT22;14685;50.618;7.024;2022-08-04T08:08:59;31.50;84.90
27164;DHT22;14685;50.618;7.024;2022-08-04T08:11:41;31.70;84.70
27164;DHT22;14685;50.618;7.024;2022-08-04T08:14:29;31.90;85.70
27164;DHT22;14685;50.618;7.024;2022-08-04T08:17:00;32.10;85.60
27164;DHT22;14685;50.618;7.024;2022-08-04T08:19:29;32.30;86.00
27164;DHT22;14685;50.618;7.024;2022-08-04T08:21:56;32.50;84.80
27164;DHT22;14685;50.618;7.024;2022-08-04T08:24:26;32.70;83.50
27164;DHT22;14685;50.618;7.024;2022-08-04T08:26:53;32.80;83.30
27164;DHT22;14685;50.618;7.024;2022-08-04T08:29:22;32.90;84.00
27164;DHT22;14685;50.618;7.024;2022-08-04T08:31:50;33.20;83.00
27164;DHT22;14685;50.618;7.024;2022-08-04T08:34:24;33.30;81.10
27164;DHT22;14685;50.618;7.024;2022-08-04T08:37:02;33.50;80.60
27164;DHT22;14685;50.618;7.024;2022-08-04T08:39:40;33.60;79.60
27164;DHT22;14685;50.618;7.024;2022-08-04T08:45:52;33.90;78.00
27164;DHT22;14685;50.618;7.024;2022-08-04T08:48:56;34.00;78.70
27164;DHT22;14685;50.618;7.024;2022-08-04T08:51:52;34.20;75.90
27164;DHT22;14685;50.618;7.024;2022-08-04T08:54:43;34.30;74.80
27164;DHT22;14685;50.618;7.024;2022-08-04T09:00:55;34.60;72.40
27164;DHT22;14685;50.618;7.024;2022-08-04T09:03:49;34.80;71.50
27164;DHT22;14685;50.618;7.024;2022-08-04T09:09:58;35.20;70.40
27164;DHT22;14685;50.618;7.024;2022-08-04T09:12:53;35.30;66.90
27164;DHT22;14685;50.618;7.024;2022-08-04T09:15:40;35.50;71.50
27164;DHT22;14685;50.618;7.024;2022-08-04T09:18:17;35.60;69.00
27164;DHT22;14685;50.618;7.024;2022-08-04T09:29:56;36.10;67.50
27164;DHT22;14685;50.618;7.024;2022-08-04T09:32:37;36.20;65.40
27164;DHT22;14685;50.618;7.024;2022-08-04T09:38:34;36.20;72.10
27164;DHT22;14685;50.618;7.024;2022-08-04T09:41:36;36.20;64.60
27164;DHT22;14685;50.618;7.024;2022-08-04T09:49:49;36.30;62.60
27164;DHT22;14685;50.618;7.024;2022-08-04T09:52:31;36.30;67.00
27164;DHT22;14685;50.618;7.024;2022-08-04T09:55:17;36.50;68.20
27164;DHT22;14685;50.618;7.024;2022-08-04T10:00:39;36.70;62.70
27164;DHT22;14685;50.618;7.024;2022-08-04T10:03:13;36.80;66.20
27164;DHT22;14685;50.618;7.024;2022-08-04T10:17:30;36.70;67.60
27164;DHT22;14685;50.618;7.024;2022-08-04T10:20:07;36.60;68.50
27164;DHT22;14685;50.618;7.024;2022-08-04T10:22:42;36.60;67.80
27164;DHT22;14685;50.618;7.024;2022-08-04T10:28:43;36.50;67.60
27164;DHT22;14685;50.618;7.024;2022-08-04T10:31:18;36.50;66.30
27164;DHT22;14685;50.618;7.024;2022-08-04T10:33:53;36.40;67.00
27164;DHT22;14685;50.618;7.024;2022-08-04T10:36:40;36.50;64.90
27164;DHT22;14685;50.618;7.024;2022-08-04T10:39:14;36.50;61.90
27164;DHT22;14685;50.618;7.024;2022-08-04T10:42:24;36.50;65.40
27164;DHT22;14685;50.618;7.024;2022-08-04T10:45:21;36.60;60.40
27164;DHT22;14685;50.618;7.024;2022-08-04T10:48:55;36.60;63.60
27164;DHT22;14685;50.618;7.024;2022-08-04T10:51:23;36.50;59.50
27164;DHT22;14685;50.618;7.024;2022-08-04T10:54:01;36.50;60.70
27164;DHT22;14685;50.618;7.024;2022-08-04T10:56:40;36.50;58.50
27164;DHT22;14685;50.618;7.024;2022-08-04T10:59:32;36.50;57.10
27164;DHT22;14685;50.618;7.024;2022-08-04T11:02:50;36.40;54.70
27164;DHT22;14685;50.618;7.024;2022-08-04T11:05:11;36.40;56.80
27164;DHT22;14685;50.618;7.024;2022-08-04T11:07:43;36.50;55.00
27164;DHT22;14685;50.618;7.024;2022-08-04T11:10:11;36.50;55.80
27164;DHT22;14685;50.618;7.024;2022-08-04T11:12:41;36.40;56.70
27164;DHT22;14685;50.618;7.024;2022-08-04T11:15:19;36.40;57.20
27164;DHT22;14685;50.618;7.024;2022-08-04T11:17:54;36.50;54.30
27164;DHT22;14685;50.618;7.024;2022-08-04T11:20:28;36.50;56.50
27164;DHT22;14685;50.618;7.024;2022-08-04T11:23:09;36.50;54.90
27164;DHT22;14685;50.618;7.024;2022-08-04T11:25:59;36.50;55.10
27164;DHT22;14685;50.618;7.024;2022-08-04T11:28:47;36.40;57.50
27164;DHT22;14685;50.618;7.024;2022-08-04T11:31:35;36.50;58.10
27164;DHT22;14685;50.618;7.024;2022-08-04T11:37:16;36.60;58.80
27164;DHT22;14685;50.618;7.024;2022-08-04T11:39:49;36.60;56.70
27164;DHT22;14685;50.618;7.024;2022-08-04T11:42:25;36.60;56.20
27164;DHT22;14685;50.618;7.024;2022-08-04T11:47:56;36.50;56.60
27164;DHT22;14685;50.618;7.024;2022-08-04T11:50:38;36.50;58.10
27164;DHT22;14685;50.618;7.024;2022-08-04T11:53:08;36.40;57.80
27164;DHT22;14685;50.618;7.024;2022-08-04T11:55:37;36.40;56.30
27164;DHT22;14685;50.618;7.024;2022-08-04T11:58:25;36.40;58.80
27164;DHT22;14685;50.618;7.024;2022-08-04T12:01:17;36.30;58.60
27164;DHT22;14685;50.618;7.024;2022-08-04T12:04:46;36.30;55.00
27164;DHT22;14685;50.618;7.024;2022-08-04T12:07:42;36.30;56.70
27164;DHT22;14685;50.618;7.024;2022-08-04T12:10:25;36.30;57.50
27164;DHT22;14685;50.618;7.024;2022-08-04T12:18:32;36.20;61.50
27164;DHT22;14685;50.618;7.024;2022-08-04T12:21:02;36.10;62.60
27164;DHT22;14685;50.618;7.024;2022-08-04T12:23:38;36.00;63.00
27164;DHT22;14685;50.618;7.024;2022-08-04T12:26:08;35.90;63.20
27164;DHT22;14685;50.618;7.024;2022-08-04T12:28:40;35.80;62.80
27164;DHT22;14685;50.618;7.024;2022-08-04T12:31:40;35.80;64.60
27164;DHT22;14685;50.618;7.024;2022-08-04T12:34:13;35.70;63.90
27164;DHT22;14685;50.618;7.024;2022-08-04T12:36:55;35.70;64.50
27164;DHT22;14685;50.618;7.024;2022-08-04T12:39:26;35.70;64.60
27164;DHT22;14685;50.618;7.024;2022-08-04T12:42:15;35.70;65.40
27164;DHT22;14685;50.618;7.024;2022-08-04T12:44:47;35.60;64.70
27164;DHT22;14685;50.618;7.024;2022-08-04T12:47:25;35.60;64.80
27164;DHT22;14685;50.618;7.024;2022-08-04T12:49:59;35.60;65.30
27164;DHT22;14685;50.618;7.024;2022-08-04T12:52:47;35.50;64.80
27164;DHT22;14685;50.618;7.024;2022-08-04T12:55:33;35.50;65.60
27164;DHT22;14685;50.618;7.024;2022-08-04T12:58:02;35.50;65.50
27164;DHT22;14685;50.618;7.024;2022-08-04T13:00:34;35.40;66.90
27164;DHT22;14685;50.618;7.024;2022-08-04T13:03:13;35.30;67.60
27164;DHT22;14685;50.618;7.024;2022-08-04T13:05:42;35.30;68.70
27164;DHT22;14685;50.618;7.024;2022-08-04T13:08:10;35.20;68.30
27164;DHT22;14685;50.618;7.024;2022-08-04T13:10:41;35.10;68.90
27164;DHT22;14685;50.618;7.024;2022-08-04T13:13:15;35.10;70.40
27164;DHT22;14685;50.618;7.024;2022-08-04T13:15:42;35.00;69.70
27164;DHT22;14685;50.618;7.024;2022-08-04T13:18:22;35.00;70.50
27164;DHT22;14685;50.618;7.024;2022-08-04T13:20:57;34.90;70.60
27164;DHT22;14685;50.618;7.024;2022-08-04T13:23:49;34.90;70.60
27164;DHT22;14685;50.618;7.024;2022-08-04T13:27:21;34.80;69.60
27164;DHT22;14685;50.618;7.024;2022-08-04T13:29:50;34.80;69.40
27164;DHT22;14685;50.618;7.024;2022-08-04T13:32:27;34.70;70.00
27164;DHT22;14685;50.618;7.024;2022-08-04T13:34:56;34.70;70.40
27164;DHT22;14685;50.618;7.024;2022-08-04T13:37:31;34.70;69.40
27164;DHT22;14685;50.618;7.024;2022-08-04T13:39:59;34.80;68.50
27164;DHT22;14685;50.618;7.024;2022-08-04T13:42:27;34.80;70.00
27164;DHT22;14685;50.618;7.024;2022-08-04T13:44:57;34.70;69.50
27164;DHT22;14685;50.618;7.024;2022-08-04T13:47:30;34.70;70.10
27164;DHT22;14685;50.618;7.024;2022-08-04T13:52:37;34.70;71.00
27164;DHT22;14685;50.618;7.024;2022-08-04T13:55:05;34.70;70.00
27164;DHT22;14685;50.618;7.024;2022-08-04T13:57:42;34.70;70.00
27164;DHT22;14685;50.618;7.024;2022-08-04T14:00:09;34.70;70.00
27164;DHT22;14685;50.618;7.024;2022-08-04T14:02:46;34.70;69.50
27164;DHT22;14685;50.618;7.024;2022-08-04T14:05:22;34.60;69.20
27164;DHT22;14685;50.618;7.024;2022-08-04T14:08:05;34.70;70.20
27164;DHT22;14685;50.618;7.024;2022-08-04T14:10:34;34.60;70.50
27164;DHT22;14685;50.618;7.024;2022-08-04T14:13:04;34.70;70.00
27164;DHT22;14685;50.618;7.024;2022-08-04T14:15:48;34.60;69.50
27164;DHT22;14685;50.618;7.024;2022-08-04T14:18:31;34.70;69.60
27164;DHT22;14685;50.618;7.024;2022-08-04T14:23:27;34.60;69.30
27164;DHT22;14685;50.618;7.024;2022-08-04T14:25:59;34.60;69.00
27164;DHT22;14685;50.618;7.024;2022-08-04T14:28:27;34.50;69.80
27164;DHT22;14685;50.618;7.024;2022-08-04T14:31:17;34.50;70.20
27164;DHT22;14685;50.618;7.024;2022-08-04T14:33:50;34.50;70.80
27164;DHT22;14685;50.618;7.024;2022-08-04T14:36:40;34.50;69.30
27164;DHT22;14685;50.618;7.024;2022-08-04T14:39:38;34.50;70.40
27164;DHT22;14685;50.618;7.024;2022-08-04T14:42:06;34.50;68.90
27164;DHT22;14685;50.618;7.024;2022-08-04T14:44:55;34.50;69.70
27164;DHT22;14685;50.618;7.024;2022-08-04T14:47:42;34.40;68.80
27164;DHT22;14685;50.618;7.024;2022-08-04T14:50:19;34.40;69.60
27164;DHT22;14685;50.618;7.024;2022-08-04T14:52:46;34.30;68.40
27164;DHT22;14685;50.618;7.024;2022-08-04T14:55:21;34.30;70.10
27164;DHT22;14685;50.618;7.024;2022-08-04T14:57:49;34.20;69.90
27164;DHT22;14685;50.618;7.024;2022-08-04T15:00:36;34.30;70.80
27164;DHT22;14685;50.618;7.024;2022-08-04T15:03:06;34.20;70.80
27164;DHT22;14685;50.618;7.024;2022-08-04T15:05:37;34.20;71.40
27164;DHT22;14685;50.618;7.024;2022-08-04T15:08:25;34.20;71.60
27164;DHT22;14685;50.618;7.024;2022-08-04T15:11:00;34.30;71.80
27164;DHT22;14685;50.618;7.024;2022-08-04T15:13:32;34.20;71.60
27164;DHT22;14685;50.618;7.024;2022-08-04T15:15:59;34.30;71.60
27164;DHT22;14685;50.618;7.024;2022-08-04T15:18:36;34.20;71.70
27164;DHT22;14685;50.618;7.024;2022-08-04T15:21:05;34.20;72.20
27164;DHT22;14685;50.618;7.024;2022-08-04T15:23:33;34.20;71.60
27164;DHT22;14685;50.618;7.024;2022-08-04T15:26:08;34.20;72.10
27164;DHT22;14685;50.618;7.024;2022-08-04T15:28:38;34.20;72.00
27164;DHT22;14685;50.618;7.024;2022-08-04T15:31:07;34.20;72.70
27164;DHT22;14685;50.618;7.024;2022-08-04T15:33:55;34.20;72.70
27164;DHT22;14685;50.618;7.024;2022-08-04T15:36:54;34.20;72.80
27164;DHT22;14685;50.618;7.024;2022-08-04T15:42:22;34.10;73.00
27164;DHT22;14685;50.618;7.024;2022-08-04T15:45:19;34.00;72.30
27164;DHT22;14685;50.618;7.024;2022-08-04T15:53:31;33.90;73.10
27164;DHT22;14685;50.618;7.024;2022-08-04T15:58:53;33.80;74.20
27164;DHT22;14685;50.618;7.024;2022-08-04T16:01:20;33.70;73.70
27164;DHT22;14685;50.618;7.024;2022-08-04T16:03:52;33.70;73.90
27164;DHT22;14685;50.618;7.024;2022-08-04T16:09:00;33.60;74.00
27164;DHT22;14685;50.618;7.024;2022-08-04T16:19:10;33.30;74.70
27164;DHT22;14685;50.618;7.024;2022-08-04T16:21:48;33.20;79.80
27164;DHT22;14685;50.618;7.024;2022-08-04T16:26:58;32.90;86.20
27164;DHT22;14685;50.618;7.024;2022-08-04T16:29:34;32.80;89.40
27164;DHT22;14685;50.618;7.024;2022-08-04T16:37:17;32.60;90.90
27164;DHT22;14685;50.618;7.024;2022-08-04T16:39:45;32.40;91.50
27164;DHT22;14685;50.618;7.024;2022-08-04T16:50:20;32.20;92.00
27164;DHT22;14685;50.618;7.024;2022-08-04T16:52:49;32.10;92.10
27164;DHT22;14685;50.618;7.024;2022-08-04T16:55:22;32.10;92.20
27164;DHT22;14685;50.618;7.024;2022-08-04T16:57:54;32.00;92.30
27164;DHT22;14685;50.618;7.024;2022-08-04T17:00:34;32.00;93.20
27164;DHT22;14685;50.618;7.024;2022-08-04T17:03:06;32.00;93.30
27164;DHT22;14685;50.618;7.024;2022-08-04T17:05:34;32.00;93.10
27164;DHT22;14685;50.618;7.024;2022-08-04T17:08:07;31.90;93.30
27164;DHT22;14685;50.618;7.024;2022-08-04T17:10:54;31.80;93.10
27164;DHT22;14685;50.618;7.024;2022-08-04T17:13:26;31.70;93.70
27164;DHT22;14685;50.618;7.024;2022-08-04T17:16:17;31.70;93.80
27164;DHT22;14685;50.618;7.024;2022-08-04T17:18:49;31.60;93.70
27164;DHT22;14685;50.618;7.024;2022-08-04T17:21:22;31.60;93.40
27164;DHT22;14685;50.618;7.024;2022-08-04T17:23:51;31.50;93.80
27164;DHT22;14685;50.618;7.024;2022-08-04T17:26:39;31.50;93.80
27164;DHT22;14685;50.618;7.024;2022-08-04T17:29:10;31.50;94.00
27164;DHT22;14685;50.618;7.024;2022-08-04T17:31:37;31.50;93.70
27164;DHT22;14685;50.618;7.024;2022-08-04T17:34:11;31.40;93.80
27164;DHT22;14685;50.618;7.024;2022-08-04T17:36:42;31.40;93.50
27164;DHT22;14685;50.618;7.024;2022-08-04T17:39:12;31.40;93.70
27164;DHT22;14685;50.618;7.024;2022-08-04T17:41:42;31.40;94.20
27164;DHT22;14685;50.618;7.024;2022-08-04T17:44:15;31.40;94.40
27164;DHT22;14685;50.618;7.024;2022-08-04T17:46:44;31.40;94.60
27164;DHT22;14685;50.618;7.024;2022-08-04T17:52:00;31.30;95.30
27164;DHT22;14685;50.618;7.024;2022-08-04T17:54:38;31.30;94.50
27164;DHT22;14685;50.618;7.024;2022-08-04T17:57:17;31.30;94.30
27164;DHT22;14685;50.618;7.024;2022-08-04T17:59:54;31.30;93.50
27164;DHT22;14685;50.618;7.024;2022-08-04T18:02:30;31.20;92.60
27164;DHT22;14685;50.618;7.024;2022-08-04T18:05:01;31.20;93.20
27164;DHT22;14685;50.618;7.024;2022-08-04T18:07:41;31.20;93.60
27164;DHT22;14685;50.618;7.024;2022-08-04T18:10:54;31.20;94.10
27164;DHT22;14685;50.618;7.024;2022-08-04T18:13:26;31.20;93.40
27164;DHT22;14685;50.618;7.024;2022-08-04T18:16:04;31.20;93.30
27164;DHT22;14685;50.618;7.024;2022-08-04T18:18:40;31.20;93.20
27164;DHT22;14685;50.618;7.024;2022-08-04T18:21:14;31.20;93.40
27164;DHT22;14685;50.618;7.024;2022-08-04T18:23:43;31.20;93.50
27164;DHT22;14685;50.618;7.024;2022-08-04T18:26:30;31.20;93.90
27164;DHT22;14685;50.618;7.024;2022-08-04T18:28:59;31.20;94.10
27164;DHT22;14685;50.618;7.024;2022-08-04T18:31:30;31.20;94.10
27164;DHT22;14685;50.618;7.024;2022-08-04T18:34:01;31.10;94.10
27164;DHT22;14685;50.618;7.024;2022-08-04T18:36:29;31.20;94.50
27164;DHT22;14685;50.618;7.024;2022-08-04T18:39:04;31.20;94.60
27164;DHT22;14685;50.618;7.024;2022-08-04T18:41:41;31.10;95.10
27164;DHT22;14685;50.618;7.024;2022-08-04T18:44:29;31.10;95.30
27164;DHT22;14685;50.618;7.024;2022-08-04T18:46:57;31.10;95.60
27164;DHT22;14685;50.618;7.024;2022-08-04T18:49:44;31.10;95.50
27164;DHT22;14685;50.618;7.024;2022-08-04T18:52:31;31.10;95.70
27164;DHT22;14685;50.618;7.024;2022-08-04T18:54:58;31.10;95.30
27164;DHT22;14685;50.618;7.024;2022-08-04T18:57:28;31.10;95.20
27164;DHT22;14685;50.618;7.024;2022-08-04T19:00:16;31.10;94.70
27164;DHT22;14685;50.618;7.024;2022-08-04T19:02:45;31.00;94.90
27164;DHT22;14685;50.618;7.024;2022-08-04T19:05:13;31.00;95.10
27164;DHT22;14685;50.618;7.024;2022-08-04T19:07:43;31.00;94.90
27164;DHT22;14685;50.618;7.024;2022-08-04T19:10:30;31.00;94.90
27164;DHT22;14685;50.618;7.024;2022-08-04T19:12:57;30.90;94.90
27164;DHT22;14685;50.618;7.024;2022-08-04T19:15:25;30.90;95.00
27164;DHT22;14685;50.618;7.024;2022-08-04T19:18:16;30.90;95.30
27164;DHT22;14685;50.618;7.024;2022-08-04T19:20:44;30.90;95.40
27164;DHT22;14685;50.618;7.024;2022-08-04T19:23:15;30.90;95.60
27164;DHT22;14685;50.618;7.024;2022-08-04T19:26:02;30.90;95.50
27164;DHT22;14685;50.618;7.024;2022-08-04T19:28:37;30.80;95.40
27164;DHT22;14685;50.618;7.024;2022-08-04T19:31:07;30.80;95.70
27164;DHT22;14685;50.618;7.024;2022-08-04T19:33:36;30.80;95.50
27164;DHT22;14685;50.618;7.024;2022-08-04T19:36:24;30.80;95.40
27164;DHT22;14685;50.618;7.024;2022-08-04T19:38:57;30.70;95.40
27164;DHT22;14685;50.618;7.024;2022-08-04T19:41:26;30.70;95.40
27164;DHT22;14685;50.618;7.024;2022-08-04T19:43:56;30.70;95.50
27164;DHT22;14685;50.618;7.024;2022-08-04T19:46:23;30.70;95.50
27164;DHT22;14685;50.618;7.024;2022-08-04T19:48:54;30.60;95.10
27164;DHT22;14685;50.618;7.024;2022-08-04T19:51:27;30.60;95.10
27164;DHT22;14685;50.618;7.024;2022-08-04T19:53:55;30.50;95.10
27164;DHT22;14685;50.618;7.024;2022-08-04T19:56:36;30.50;95.10
27164;DHT22;14685;50.618;7.024;2022-08-04T19:59:09;30.40;95.00
27164;DHT22;14685;50.618;7.024;2022-08-04T20:01:37;30.40;95.00
27164;DHT22;14685;50.618;7.024;2022-08-04T20:04:11;30.40;94.90
27164;DHT22;14685;50.618;7.024;2022-08-04T20:06:38;30.30;95.20
27164;DHT22;14685;50.618;7.024;2022-08-04T20:09:05;30.30;95.30
27164;DHT22;14685;50.618;7.024;2022-08-04T20:11:53;30.30;95.20
27164;DHT22;14685;50.618;7.024;2022-08-04T20:14:20;30.20;95.30
27164;DHT22;14685;50.618;7.024;2022-08-04T20:17:01;30.20;95.30
27164;DHT22;14685;50.618;7.024;2022-08-04T20:19:28;30.10;95.30
27164;DHT22;14685;50.618;7.024;2022-08-04T20:21:56;30.10;95.20
27164;DHT22;14685;50.618;7.024;2022-08-04T20:24:23;30.10;95.20
27164;DHT22;14685;50.618;7.024;2022-08-04T20:27:10;30.00;95.30
27164;DHT22;14685;50.618;7.024;2022-08-04T20:29:43;30.00;95.40
27164;DHT22;14685;50.618;7.024;2022-08-04T20:32:18;29.90;95.50
27164;DHT22;14685;50.618;7.024;2022-08-04T20:34:49;29.90;95.60